• Join FlightAware (Why Join?)
  • Login
  • US Flag 
10:27PM EDT


 

Airport Tracker/Info


-or-


 

Live Flight TrackerFlight Track Log ✈ SKQ45 ✈ 11-Jun-2013 ✈ KPAH - KSTL

Flight Track Log - Related Links

Times and Time Zones

All times are in EDT time to prevent confusion due to time zone crossing. See the SKQ45 flight status page for this flight to view local times or setup timezone preferences in your user account.

Time Position Orientation Groundspeed Altitude Reporting Facility
EDT Latitude Longitude Course Direction KTS MPH feet Rate Location/Type
10:58PM 37.0672 -88.7425 328° Northwest 179 206 1,300  Level Memphis Center
10:59PM 37.1092 -88.7753 328° Northwest 92 106 2,900 900 Climbing Memphis Center
11:00PM 37.1536 -88.8214 320° Northwest 142 163 3,100 60 Climbing Memphis Center
11:01PM 37.2064 -88.8725 322° Northwest 190 219 3,100  Level Memphis Center
11:02PM 37.2569 -88.9183 324° Northwest 224 258 3,100 600 Level Memphis Center
11:03PM 37.3075 -88.9697 321° Northwest 235 270 4,400 1,560 Climbing Memphis Center
11:05PM 37.3672 -89.0203 326° Northwest 180 207 7,300 1,740 Climbing Kansas City Center
11:06PM 37.4033 -89.0558 322° Northwest 166 191 9,100 1,260 Climbing Kansas City Center
11:07PM 37.4397 -89.0900 323° Northwest 164 189 10,000 420 Climbing Kansas City Center
11:08PM 37.4878 -89.1344 324° Northwest 203 234 10,000  Level Kansas City Center
11:09PM 37.5392 -89.1861 321° Northwest 229 264 10,000  Level Kansas City Center
11:10PM 37.5906 -89.2358 323° Northwest 233 268 10,000  Level Kansas City Center
11:11PM 37.6422 -89.2844 323° Northwest 232 267 10,000  Level Kansas City Center
11:12PM 37.7053 -89.3450 323° Northwest 235 270 10,000  Level Kansas City Center
11:13PM 37.7572 -89.3953 323° Northwest 235 270 10,000  Level Kansas City Center
11:14PM 37.8028 -89.4403 322° Northwest 236 272 10,000  Level Kansas City Center
11:15PM 37.8644 -89.4981 324° Northwest 243 280 10,000  Level Kansas City Center
11:16PM 37.9175 -89.5500 322° Northwest 241 277 10,000  Level Kansas City Center
11:17PM 37.9747 -89.6050 323° Northwest 240 276 10,000  Level Kansas City Center
11:18PM 38.0281 -89.6567 323° Northwest 241 277 10,000  Level Kansas City Center
11:19PM 38.0814 -89.7097 322° Northwest 243 280 10,000 -60 Level Kansas City Center
11:20PM 38.1325 -89.7608 322° Northwest 239 275 9,900 -420 Descending Kansas City Center
11:21PM 38.1892 -89.8169 322° Northwest 252 290 9,200 -720 Descending Kansas City Center
11:22PM 38.2461 -89.8714 323° Northwest 257 296 8,500 -720 Descending Kansas City Center
11:23PM 38.3033 -89.9292 322° Northwest 261 300 7,800 -660 Descending Kansas City Center
11:24PM 38.3614 -89.9864 322° Northwest 263 303 7,200 -660 Descending Kansas City Center
11:25PM 38.4183 -90.0403 323° Northwest 259 298 6,500 -720 Descending Kansas City Center
11:26PM 38.4742 -90.0944 323° Northwest 256 295 5,800 -720 Descending Kansas City Center
11:27PM 38.5272 -90.1483 322° Northwest 252 290 5,100 -780 Descending Kansas City Center
11:28PM 38.5928 -90.2056 326° Northwest 244 281 4,300 -840 Descending Kansas City Center
11:29PM 38.6486 -90.2353 337° Northwest 233 268 3,400 -1,020 Descending Kansas City Center
11:30PM 38.6944 -90.2572 340° North 215 247 2,300 -1,140 Descending Kansas City Center
11:31PM 38.7247 -90.3111 306° West 197 227 1,100 -840 Descending Kansas City Center
11:32PM 38.7403 -90.3431 302° West 135 155 600 -540 Descending Kansas City Center
11:34PM 38.7333 -90.3667 345° North  Level FlightAware Approximate
11:41PM 38.7487 -90.3700 345° North  Level Estimated